GBYD/BJL METAR and TAF weather

Enter ICAO airport designator
Station Type Date Time Source
GBYD METAR 2021/09/24 02:00 UTC NOAA

GBYD 240200Z 07012KT 9999 SCT010 FEW018CB BKN110 24/24 Q1013 CB(NW-E)


Station Type Date Time Source
GBYD Decoded METAR 2021/09/24 02:00 UTC NOAA

Banjul / Yundum, Gambia, The (GBYD) 13-21N 016-48W 36M
Sep 23, 2021 - 10:00 PM EDT / 2021.09.24 0200 UTC
Wind: from the ENE (070 degrees) at 14 MPH (12 KT):0
Visibility: greater than 7 mile(s):0
Sky conditions: mostly cloudy
Weather: Cumulonimbus clouds observed
Temperature: 75 F (24 C)
Dew Point: 75 F (24 C)
Relative Humidity: 100%
Pressure (altimeter): 29.91 in. Hg (1013 hPa)
ob: GBYD 240200Z 07012KT 9999 SCT010 FEW018CB BKN110 24/24 Q1013 CB(NW-E)
cycle: 2

Station Type Date Time Source
GBYD TAF 2021/09/23 18:36 UTC NOAA

TAF TAF GBYD 231700Z 2318/2424 28006KT 9999 SCT010 FEW025CB
BECMG 23208/2322 BKN010

Example: see airport list